createdAt,value
2023-03-05T00:02:00.641Z,3.87
2023-03-05T00:04:27.890Z,3.97
2023-03-05T00:06:55.763Z,3.98
2023-03-05T00:09:23.005Z,3.85
2023-03-05T00:11:50.251Z,3.93
2023-03-05T00:14:17.531Z,3.96
2023-03-05T00:16:44.789Z,3.97
2023-03-05T00:19:13.378Z,4.01
2023-03-05T00:21:42.088Z,4.00
2023-03-05T00:24:12.058Z,3.97
2023-03-05T00:26:39.862Z,3.83
2023-03-05T00:29:07.586Z,3.85
2023-03-05T00:31:35.534Z,3.80
2023-03-05T00:34:03.857Z,3.89
2023-03-05T00:36:32.744Z,3.87
2023-03-05T00:39:00.460Z,3.82
2023-03-05T00:41:28.097Z,3.99
2023-03-05T00:43:55.759Z,3.88
2023-03-05T00:46:23.140Z,3.75
2023-03-05T00:48:50.576Z,3.68
2023-03-05T00:51:17.882Z,3.76
2023-03-05T00:53:46.817Z,3.83
2023-03-05T00:56:14.106Z,3.77
2023-03-05T00:58:41.366Z,3.79
2023-03-05T01:01:08.702Z,3.71
2023-03-05T01:03:36.238Z,3.57
2023-03-05T01:06:05.662Z,3.74
2023-03-05T01:08:32.918Z,3.71
2023-03-05T01:11:01.575Z,3.58
2023-03-05T01:13:28.830Z,3.73
2023-03-05T01:15:56.077Z,3.63
2023-03-05T01:18:23.670Z,3.59
2023-03-05T01:20:50.937Z,3.60
2023-03-05T01:23:18.308Z,3.48
2023-03-05T01:25:45.629Z,3.54
2023-03-05T01:28:14.272Z,3.43
2023-03-05T01:30:41.538Z,3.53
2023-03-05T01:33:08.801Z,3.46
2023-03-05T01:35:36.071Z,3.45
2023-03-05T01:38:03.338Z,3.41
2023-03-05T01:40:31.386Z,3.53
2023-03-05T01:43:00.427Z,3.47
2023-03-05T01:45:31.366Z,3.41
2023-03-05T01:47:58.646Z,3.39
2023-03-05T01:50:27.139Z,3.42
2023-03-05T01:52:55.753Z,3.35
2023-03-05T01:55:23.937Z,3.33
2023-03-05T01:57:54.201Z,3.27
2023-03-05T02:00:23.533Z,3.28
2023-03-05T02:02:52.357Z,3.35
2023-03-05T02:05:20.756Z,3.21
2023-03-05T02:07:48.217Z,3.29
2023-03-05T02:10:16.445Z,3.27
2023-03-05T02:12:43.912Z,3.10
2023-03-05T02:15:12.569Z,3.31
2023-03-05T02:17:39.997Z,3.31
2023-03-05T02:20:11.348Z,3.34
2023-03-05T02:22:39.933Z,3.31
2023-03-05T02:25:14.786Z,3.31
2023-03-05T02:27:43.860Z,3.18
2023-03-05T02:30:12.450Z,3.10
2023-03-05T02:32:39.762Z,3.21
2023-03-05T02:35:07.640Z,3.23
2023-03-05T02:37:34.891Z,3.25
2023-03-05T02:40:03.572Z,3.10
2023-03-05T02:42:33.470Z,3.00
2023-03-05T02:45:00.948Z,3.05
2023-03-05T02:47:28.298Z,3.20
2023-03-05T02:49:55.925Z,3.18
2023-03-05T02:52:24.017Z,3.10
2023-03-05T02:54:51.294Z,3.05
2023-03-05T02:57:19.983Z,3.03
2023-03-05T02:59:47.875Z,2.98
2023-03-05T03:02:15.272Z,3.08
2023-03-05T03:04:42.512Z,3.12
2023-03-05T03:07:09.776Z,3.14
2023-03-05T03:09:37.016Z,3.04
2023-03-05T03:12:04.560Z,3.09
2023-03-05T03:14:37.730Z,3.03
2023-03-05T03:17:05.041Z,3.01
2023-03-05T03:19:32.465Z,2.94
2023-03-05T03:21:59.968Z,2.86
2023-03-05T03:24:27.293Z,2.95
2023-03-05T03:26:54.520Z,2.84
2023-03-05T03:29:21.790Z,2.82
2023-03-05T03:31:50.388Z,2.90
2023-03-05T03:34:18.339Z,2.87
2023-03-05T03:36:46.070Z,2.78
2023-03-05T03:39:14.000Z,3.00
2023-03-05T03:41:42.194Z,2.95
2023-03-05T03:44:10.668Z,2.75
2023-03-05T03:46:39.264Z,2.96
2023-03-05T03:49:09.064Z,2.73
2023-03-05T03:51:36.325Z,2.75
2023-03-05T03:54:03.594Z,2.82
2023-03-05T03:56:30.828Z,2.75
2023-03-05T03:58:58.115Z,2.71
2023-03-05T04:01:25.699Z,2.77
2023-03-05T04:03:52.992Z,2.71
2023-03-05T04:06:21.620Z,2.65
2023-03-05T04:08:48.890Z,2.81
2023-03-05T04:11:19.226Z,2.70
2023-03-05T04:13:46.779Z,2.80
2023-03-05T04:16:14.197Z,2.70
2023-03-05T04:18:41.817Z,2.76
2023-03-05T04:21:09.632Z,2.80
2023-03-05T04:23:38.200Z,2.68
2023-03-05T04:26:05.643Z,2.82
2023-03-05T04:28:32.977Z,2.74
2023-03-05T04:31:00.258Z,2.80
2023-03-05T04:33:27.669Z,2.72
2023-03-05T04:35:55.131Z,2.77
2023-03-05T04:38:22.717Z,2.66
2023-03-05T04:40:51.290Z,2.71
2023-03-05T04:43:18.556Z,2.82
2023-03-05T04:45:45.811Z,2.70
2023-03-05T04:48:13.594Z,2.79
2023-03-05T04:50:40.869Z,2.68
2023-03-05T04:53:08.131Z,2.70
2023-03-05T04:55:35.432Z,2.58
2023-03-05T04:58:04.158Z,2.52
2023-03-05T05:00:31.428Z,2.63
2023-03-05T05:02:58.703Z,2.63
2023-03-05T05:05:26.847Z,2.57
2023-03-05T05:07:56.030Z,2.45
2023-03-05T05:10:23.354Z,2.41
2023-03-05T05:12:50.598Z,2.42
2023-03-05T05:15:19.332Z,2.43
2023-03-05T05:17:46.680Z,2.46
2023-03-05T05:20:15.050Z,2.35
2023-03-05T05:22:42.650Z,2.40
2023-03-05T05:25:10.430Z,2.40
2023-03-05T05:27:38.265Z,2.45
2023-03-05T05:30:05.919Z,2.38
2023-03-05T05:32:34.559Z,2.50
2023-03-05T05:35:01.912Z,2.45
2023-03-05T05:37:30.412Z,2.56
2023-03-05T05:39:57.681Z,2.37
2023-03-05T05:42:25.718Z,2.44
2023-03-05T05:44:53.259Z,2.52
2023-03-05T05:47:20.550Z,2.48
2023-03-05T05:49:49.188Z,2.33
2023-03-05T05:52:16.435Z,2.51
2023-03-05T05:54:44.472Z,2.51
2023-03-05T05:57:11.747Z,2.58
2023-03-05T05:59:39.037Z,2.57
2023-03-05T06:02:07.848Z,2.53
2023-03-05T06:04:35.246Z,2.61
2023-03-05T06:07:04.212Z,2.64
2023-03-05T06:09:31.480Z,2.78
2023-03-05T06:11:58.890Z,2.63
2023-03-05T06:14:26.128Z,2.71
2023-03-05T06:16:53.504Z,2.73
2023-03-05T06:19:20.815Z,2.81
2023-03-05T06:21:48.083Z,2.84
2023-03-05T06:24:16.669Z,2.90
2023-03-05T06:26:44.258Z,2.91
2023-03-05T06:29:11.491Z,2.98
2023-03-05T06:31:39.627Z,2.95
2023-03-05T06:34:06.904Z,3.04
2023-03-05T06:36:34.228Z,3.02
2023-03-05T06:39:01.613Z,3.13
2023-03-05T06:41:31.836Z,3.13
2023-03-05T06:44:00.369Z,3.03
2023-03-05T06:46:28.899Z,3.20
2023-03-05T06:48:57.174Z,3.12
2023-03-05T06:51:25.581Z,3.16
2023-03-05T06:53:53.628Z,3.14
2023-03-05T06:56:21.518Z,3.11
2023-03-05T06:58:51.488Z,3.28
2023-03-05T07:01:19.378Z,3.17
2023-03-05T07:03:49.280Z,3.31
2023-03-05T07:06:16.734Z,3.07
2023-03-05T07:08:44.704Z,3.07
2023-03-05T07:11:12.852Z,3.22
2023-03-05T07:13:40.515Z,3.07
2023-03-05T07:16:10.362Z,2.99
2023-03-05T07:18:37.679Z,3.02
2023-03-05T07:21:05.420Z,2.99
2023-03-05T07:23:32.708Z,3.05
2023-03-05T07:26:01.598Z,2.88
2023-03-05T07:28:28.867Z,2.94
2023-03-05T07:30:57.164Z,2.88
2023-03-05T07:33:25.930Z,2.97
2023-03-05T07:35:53.339Z,2.98
2023-03-05T07:38:20.846Z,2.97
2023-03-05T07:40:48.201Z,3.09
2023-03-05T07:43:15.475Z,3.31
2023-03-05T07:45:43.134Z,3.22
2023-03-05T07:48:13.519Z,3.07
2023-03-05T07:50:42.633Z,3.21
2023-03-05T07:53:09.929Z,3.11
2023-03-05T07:55:42.836Z,3.10
2023-03-05T07:58:10.108Z,3.11
2023-03-05T08:00:37.461Z,3.11
2023-03-05T08:03:04.831Z,3.30
2023-03-05T08:05:32.086Z,3.41
2023-03-05T08:08:00.689Z,3.36
2023-03-05T08:10:27.974Z,3.62
2023-03-05T08:12:55.251Z,3.26
2023-03-05T08:15:22.853Z,3.26
2023-03-05T08:17:50.095Z,3.38
2023-03-05T08:20:19.125Z,3.32
2023-03-05T08:22:46.444Z,3.35
2023-03-05T08:25:15.027Z,3.11
2023-03-05T08:27:43.212Z,3.31
2023-03-05T08:30:12.709Z,3.40
2023-03-05T08:32:40.028Z,3.36
2023-03-05T08:35:07.667Z,3.75
2023-03-05T08:37:34.929Z,3.69
2023-03-05T08:40:02.308Z,4.06
2023-03-05T08:42:30.900Z,4.35
2023-03-05T08:44:58.156Z,4.58
2023-03-05T08:47:26.844Z,4.56
2023-03-05T08:49:55.479Z,4.59
2023-03-05T08:52:22.856Z,4.59
2023-03-05T08:54:50.167Z,4.55
2023-03-05T08:57:17.645Z,4.62
2023-03-05T08:59:46.248Z,4.74
2023-03-05T09:02:13.577Z,4.79
2023-03-05T09:04:41.032Z,4.65
2023-03-05T09:07:08.568Z,4.61
2023-03-05T09:09:35.926Z,4.38
2023-03-05T09:12:03.264Z,4.32
2023-03-05T09:14:30.534Z,3.78
2023-03-05T09:16:59.157Z,3.85
2023-03-05T09:19:27.399Z,3.84
2023-03-05T09:21:56.877Z,3.85
2023-03-05T09:24:24.380Z,3.81
2023-03-05T09:26:51.643Z,3.88
2023-03-05T09:29:18.917Z,3.68
2023-03-05T09:31:48.551Z,3.87
2023-03-05T09:34:17.225Z,3.72
2023-03-05T09:36:44.578Z,3.75
2023-03-05T09:39:11.858Z,3.47
2023-03-05T09:41:48.748Z,3.58
2023-03-05T09:44:23.360Z,3.72
2023-03-05T09:46:53.210Z,3.74
2023-03-05T09:49:29.537Z,3.83
2023-03-05T09:52:02.722Z,3.69
2023-03-05T09:54:33.673Z,3.87
2023-03-05T09:57:04.330Z,4.37
2023-03-05T09:59:35.871Z,5.10
2023-03-05T10:02:05.888Z,5.17
2023-03-05T10:04:43.799Z,5.32
2023-03-05T10:07:16.089Z,5.54
2023-03-05T10:09:45.728Z,5.77
2023-03-05T10:12:16.112Z,5.62
2023-03-05T10:14:43.500Z,5.23
2023-03-05T10:17:29.391Z,5.07
2023-03-05T10:20:15.222Z,4.91
2023-03-05T10:22:54.908Z,4.89
2023-03-05T10:25:24.889Z,4.88
2023-03-05T10:27:55.950Z,4.85
2023-03-05T10:30:28.826Z,4.88
2023-03-05T10:33:00.780Z,4.79
2023-03-05T10:35:40.908Z,4.90
2023-03-05T10:38:32.349Z,4.87
2023-03-05T10:41:06.519Z,4.94
2023-03-05T10:43:37.288Z,5.00
2023-03-05T10:46:05.035Z,5.03
2023-03-05T10:48:36.310Z,5.30
2023-03-05T10:51:05.748Z,5.14
2023-03-05T10:53:36.449Z,5.15
2023-03-05T10:56:04.413Z,5.24
2023-03-05T10:58:32.075Z,5.35
2023-03-05T11:01:04.101Z,5.47
2023-03-05T11:03:46.989Z,5.22
2023-03-05T11:06:14.977Z,5.10
2023-03-05T11:08:43.585Z,5.42
2023-03-05T11:11:15.800Z,5.42
2023-03-05T11:13:54.719Z,5.16
2023-03-05T11:16:23.195Z,5.38
2023-03-05T11:19:17.950Z,5.36
2023-03-05T11:21:46.117Z,5.40
2023-03-05T11:24:15.875Z,5.62
2023-03-05T11:26:47.109Z,5.84
2023-03-05T11:29:17.940Z,5.52
2023-03-05T11:31:45.426Z,5.48
2023-03-05T11:34:23.340Z,5.52
2023-03-05T11:37:03.591Z,5.56
2023-03-05T11:39:35.105Z,5.52
2023-03-05T11:42:03.681Z,5.22
2023-03-05T11:44:34.202Z,5.32
2023-03-05T11:47:04.936Z,5.14
2023-03-05T11:49:35.188Z,5.23
2023-03-05T11:52:06.818Z,5.48
2023-03-05T11:54:40.055Z,5.52
2023-03-05T11:57:10.592Z,5.03
2023-03-05T11:59:40.228Z,5.17
2023-03-05T12:02:18.303Z,5.33
2023-03-05T12:04:46.981Z,5.18
2023-03-05T12:07:17.411Z,5.18
2023-03-05T12:09:47.632Z,5.21
2023-03-05T12:12:22.988Z,5.25
2023-03-05T12:14:53.745Z,5.16
2023-03-05T12:17:25.516Z,5.46
2023-03-05T12:19:54.490Z,5.46
2023-03-05T12:22:23.005Z,5.36
2023-03-05T12:24:52.184Z,5.30
2023-03-05T12:27:33.141Z,5.14
2023-03-05T12:30:02.298Z,5.06
2023-03-05T12:33:02.209Z,5.12
2023-03-05T12:35:35.877Z,5.28
2023-03-05T12:38:24.380Z,5.31
2023-03-05T12:40:53.817Z,5.36
2023-03-05T12:43:29.352Z,5.26
2023-03-05T12:46:22.588Z,5.15
2023-03-05T12:48:49.914Z,5.16
2023-03-05T12:51:37.667Z,5.27
2023-03-05T12:54:21.102Z,4.99
2023-03-05T12:56:50.049Z,4.96
2023-03-05T12:59:19.832Z,4.91
2023-03-05T13:01:50.387Z,5.07
2023-03-05T13:04:21.078Z,5.02
2023-03-05T13:06:58.178Z,5.03
2023-03-05T13:09:27.577Z,5.04
2023-03-05T13:11:57.399Z,5.11
2023-03-05T13:14:31.045Z,5.39
2023-03-05T13:16:58.888Z,5.56
2023-03-05T13:19:26.395Z,5.58
2023-03-05T13:22:00.789Z,5.54
2023-03-05T13:24:29.154Z,5.68
2023-03-05T13:26:58.564Z,5.72
2023-03-05T13:29:28.173Z,5.40
2023-03-05T13:31:56.720Z,5.35
2023-03-05T13:34:26.533Z,5.40
2023-03-05T13:36:57.862Z,5.21
2023-03-05T13:39:27.467Z,5.28
2023-03-05T13:42:03.392Z,5.15
2023-03-05T13:44:31.086Z,5.13
2023-03-05T13:47:08.433Z,5.11
2023-03-05T13:49:36.215Z,5.08
2023-03-05T13:52:03.537Z,4.96
2023-03-05T13:54:31.265Z,4.92
2023-03-05T13:56:59.905Z,5.09
2023-03-05T13:59:29.514Z,4.99
2023-03-05T14:01:57.575Z,4.93
2023-03-05T14:04:25.821Z,4.91
2023-03-05T14:06:55.812Z,5.02
2023-03-05T14:09:24.039Z,4.99
2023-03-05T14:11:58.722Z,4.97
2023-03-05T14:14:26.693Z,4.95
2023-03-05T14:16:55.464Z,4.98
2023-03-05T14:19:34.697Z,4.94
2023-03-05T14:22:02.190Z,5.02
2023-03-05T14:24:31.288Z,4.87
2023-03-05T14:26:59.248Z,4.70
2023-03-05T14:29:28.263Z,4.72
2023-03-05T14:31:58.147Z,4.59
2023-03-05T14:34:27.261Z,4.56
2023-03-05T14:36:55.162Z,4.35
2023-03-05T14:39:33.377Z,4.14
2023-03-05T14:42:19.567Z,4.25
2023-03-05T14:44:47.367Z,4.27
2023-03-05T14:47:15.963Z,4.26
2023-03-05T14:49:43.300Z,4.34
2023-03-05T14:52:14.708Z,4.28
2023-03-05T14:54:42.319Z,4.33
2023-03-05T14:57:15.601Z,4.15
2023-03-05T14:59:42.850Z,4.18
2023-03-05T15:02:15.043Z,4.21
2023-03-05T15:04:45.571Z,4.05
2023-03-05T15:07:17.625Z,4.01
2023-03-05T15:09:44.984Z,3.70
2023-03-05T15:12:13.872Z,3.62
2023-03-05T15:14:42.141Z,3.70
2023-03-05T15:17:13.120Z,3.37
2023-03-05T15:19:40.374Z,3.40
2023-03-05T15:22:10.169Z,3.40
2023-03-05T15:24:37.436Z,3.35
2023-03-05T15:27:05.764Z,3.35
2023-03-05T15:29:33.283Z,3.35
2023-03-05T15:32:04.905Z,3.42
2023-03-05T15:34:33.616Z,3.40
2023-03-05T15:37:01.360Z,3.50
2023-03-05T15:39:30.077Z,3.55
2023-03-05T15:41:57.678Z,3.59
2023-03-05T15:44:26.490Z,3.58
2023-03-05T15:46:53.805Z,3.48
2023-03-05T15:49:22.623Z,3.66
2023-03-05T15:51:50.183Z,3.61
2023-03-05T15:54:17.435Z,3.65
2023-03-05T15:56:48.042Z,3.51
2023-03-05T15:59:15.355Z,3.68
2023-03-05T16:01:45.593Z,3.65
2023-03-05T16:04:13.135Z,3.59
2023-03-05T16:06:40.432Z,3.64
2023-03-05T16:09:07.741Z,3.87
2023-03-05T16:11:36.712Z,3.97
2023-03-05T16:14:07.491Z,3.76
2023-03-05T16:16:35.315Z,3.93
2023-03-05T16:19:03.360Z,3.88
2023-03-05T16:21:31.044Z,3.78
2023-03-05T16:23:59.477Z,3.79
2023-03-05T16:26:27.039Z,3.72
2023-03-05T16:28:54.488Z,3.87
2023-03-05T16:31:23.162Z,3.75
2023-03-05T16:33:50.443Z,3.84
2023-03-05T16:36:20.642Z,3.62
2023-03-05T16:38:48.496Z,3.68
2023-03-05T16:41:16.837Z,3.61
2023-03-05T16:43:44.941Z,3.84
2023-03-05T16:46:12.757Z,3.72
2023-03-05T16:48:42.452Z,3.80
2023-03-05T16:51:09.889Z,3.74
2023-03-05T16:53:37.250Z,3.75
2023-03-05T16:56:05.137Z,3.70
2023-03-05T16:58:33.052Z,3.68
2023-03-05T17:01:00.733Z,3.55
2023-03-05T17:03:30.602Z,3.68
2023-03-05T17:05:59.511Z,3.67
2023-03-05T17:08:28.920Z,3.74
2023-03-05T17:10:56.156Z,3.81
2023-03-05T17:13:23.455Z,3.64
2023-03-05T17:15:51.846Z,3.68
2023-03-05T17:18:21.771Z,3.57
2023-03-05T17:20:49.028Z,3.69
2023-03-05T17:23:17.613Z,3.68
2023-03-05T17:25:44.908Z,3.78
2023-03-05T17:28:12.230Z,3.78
2023-03-05T17:30:39.733Z,3.78
2023-03-05T17:33:07.103Z,3.80
2023-03-05T17:35:35.176Z,3.86
2023-03-05T17:38:03.279Z,3.85
2023-03-05T17:40:32.195Z,3.80
2023-03-05T17:42:59.496Z,3.84
2023-03-05T17:45:27.028Z,3.80
2023-03-05T17:47:54.370Z,3.74
2023-03-05T17:50:21.846Z,3.97
2023-03-05T17:52:49.257Z,3.75
2023-03-05T17:55:17.678Z,3.70
2023-03-05T17:57:47.805Z,3.71
2023-03-05T18:00:16.525Z,3.75
2023-03-05T18:02:43.861Z,3.78
2023-03-05T18:05:11.441Z,3.79
2023-03-05T18:07:38.845Z,3.82
2023-03-05T18:10:07.123Z,3.75
2023-03-05T18:12:34.525Z,3.69
2023-03-05T18:15:03.112Z,3.62
2023-03-05T18:17:30.363Z,3.77
2023-03-05T18:19:57.734Z,3.81
2023-03-05T18:22:25.001Z,3.78
2023-03-05T18:24:52.285Z,3.86
2023-03-05T18:27:22.973Z,3.87
2023-03-05T18:29:53.902Z,3.78
2023-03-05T18:32:24.261Z,3.93
2023-03-05T18:34:51.895Z,3.75
2023-03-05T18:37:19.368Z,3.80
2023-03-05T18:39:46.629Z,3.60
2023-03-05T18:42:14.639Z,3.46
2023-03-05T18:44:41.953Z,3.59
2023-03-05T18:47:09.253Z,3.76
2023-03-05T18:49:37.867Z,3.52
2023-03-05T18:52:05.299Z,3.48
2023-03-05T18:54:33.405Z,3.29
2023-03-05T18:57:00.717Z,3.32
2023-03-05T18:59:29.555Z,3.30
2023-03-05T19:01:56.838Z,3.22
2023-03-05T19:04:24.463Z,3.33
2023-03-05T19:06:53.062Z,3.25
2023-03-05T19:09:30.883Z,3.31
2023-03-05T19:11:58.178Z,3.06
2023-03-05T19:14:25.604Z,2.99
2023-03-05T19:16:52.875Z,2.88
2023-03-05T19:19:23.566Z,2.96
2023-03-05T19:21:53.402Z,3.20
2023-03-05T19:24:23.171Z,3.12
2023-03-05T19:26:55.070Z,3.11
2023-03-05T19:29:22.846Z,3.20
2023-03-05T19:31:50.230Z,3.21
2023-03-05T19:34:17.523Z,3.18
2023-03-05T19:36:44.887Z,3.31
2023-03-05T19:39:12.175Z,3.23
2023-03-05T19:41:40.921Z,3.31
2023-03-05T19:44:08.221Z,3.38
2023-03-05T19:46:35.613Z,3.44
2023-03-05T19:49:02.940Z,3.37
2023-03-05T19:51:30.303Z,3.52
2023-03-05T19:53:57.562Z,3.46
2023-03-05T19:56:25.125Z,3.36
2023-03-05T19:58:53.803Z,3.28
2023-03-05T20:01:22.436Z,3.14
2023-03-05T20:03:50.677Z,3.04
2023-03-05T20:06:18.282Z,3.11
2023-03-05T20:08:45.649Z,3.20
2023-03-05T20:11:13.681Z,3.32
2023-03-05T20:13:41.648Z,3.41
2023-03-05T20:16:15.687Z,3.49
2023-03-05T20:18:43.011Z,3.42
2023-03-05T20:21:10.359Z,3.37
2023-03-05T20:23:37.888Z,3.35
2023-03-05T20:26:06.640Z,3.32
2023-03-05T20:28:34.353Z,3.36
2023-03-05T20:31:02.203Z,3.34
2023-03-05T20:33:31.273Z,3.35
2023-03-05T20:35:58.615Z,3.24
2023-03-05T20:38:28.474Z,3.32
2023-03-05T20:40:58.387Z,3.20
2023-03-05T20:43:26.746Z,3.18
2023-03-05T20:45:54.242Z,3.21
2023-03-05T20:48:21.706Z,3.29
2023-03-05T20:50:50.377Z,3.22
2023-03-05T20:53:17.993Z,3.27
2023-03-05T20:55:45.405Z,3.33
2023-03-05T20:58:12.957Z,3.39
2023-03-05T21:00:44.958Z,3.42
2023-03-05T21:03:12.671Z,3.43
2023-03-05T21:05:40.057Z,3.51
2023-03-05T21:08:08.671Z,3.47
2023-03-05T21:10:36.116Z,3.35
2023-03-05T21:13:03.415Z,3.47
2023-03-05T21:15:31.316Z,3.20
2023-03-05T21:17:58.968Z,3.28
2023-03-05T21:20:28.062Z,3.28
2023-03-05T21:22:56.029Z,3.33
2023-03-05T21:25:27.366Z,3.23
2023-03-05T21:27:55.636Z,3.26
2023-03-05T21:30:23.210Z,3.25
2023-03-05T21:32:50.523Z,3.22
2023-03-05T21:35:18.864Z,3.14
2023-03-05T21:37:46.318Z,3.31
2023-03-05T21:40:14.913Z,3.28
2023-03-05T21:42:44.397Z,3.20
2023-03-05T22:02:10.661Z,3.23
2023-03-05T22:04:38.088Z,3.05
2023-03-05T22:07:06.520Z,3.18
2023-03-05T22:09:33.943Z,3.19
2023-03-05T22:12:01.898Z,3.21
2023-03-05T22:14:29.134Z,3.16
2023-03-05T22:17:01.646Z,3.18
2023-03-05T22:19:30.435Z,3.30
2023-03-05T22:21:57.898Z,3.05
2023-03-05T22:24:25.441Z,3.18
2023-03-05T22:26:52.862Z,3.31
2023-03-05T22:29:20.102Z,3.19
2023-03-05T22:31:47.374Z,3.32
2023-03-05T22:34:14.615Z,3.30
2023-03-05T22:36:43.193Z,3.30
2023-03-05T22:39:10.508Z,3.38
2023-03-05T22:41:37.752Z,3.45
2023-03-05T22:44:05.116Z,3.52
2023-03-05T22:46:32.394Z,3.60
2023-03-05T22:48:59.660Z,3.49
2023-03-05T22:51:26.950Z,3.51
2023-03-05T22:53:55.732Z,3.51
2023-03-05T22:56:23.004Z,3.55
2023-03-05T22:58:50.292Z,3.46
2023-03-05T23:01:18.568Z,3.59
2023-03-05T23:03:46.945Z,3.64
2023-03-05T23:06:14.291Z,3.58
2023-03-05T23:08:41.578Z,3.70
2023-03-05T23:11:15.693Z,3.46
2023-03-05T23:13:42.945Z,3.51
2023-03-05T23:16:10.473Z,3.60
2023-03-05T23:18:38.236Z,3.62
2023-03-05T23:21:05.650Z,3.63
2023-03-05T23:23:33.259Z,3.52
2023-03-05T23:26:00.550Z,3.50
2023-03-05T23:28:29.182Z,3.52
2023-03-05T23:30:58.041Z,3.62
2023-03-05T23:33:25.315Z,3.55
2023-03-05T23:35:53.549Z,3.64
2023-03-05T23:38:21.155Z,3.62
2023-03-05T23:40:49.500Z,3.62
2023-03-05T23:43:17.229Z,3.73
2023-03-05T23:45:48.028Z,3.60
2023-03-05T23:48:16.065Z,3.57
2023-03-05T23:50:44.418Z,3.58
2023-03-05T23:53:12.263Z,3.53
2023-03-05T23:55:42.384Z,3.63
2023-03-05T23:58:09.814Z,3.74
